Time;durP1;ratioP1;P1;durP2;ratioP2;P2;SDS_P1;SDS_P2;PMS_P1;PMS_P2;Temp;Humidity;BMP_temperature;BMP_pressure;BME280_temperature;BME280_humidity;BME280_pressure;Samples;Min_cycle;Max_cycle;Signal;HPM_P1;HPM_P2
2023/10/19 00:01:17;;;;;;;8.18;5.70;;;;;15.00;96741.00;;;;5032063;28;20041;-66
2023/10/19 00:03:44;;;;;;;10.43;6.43;;;;;15.00;96740.00;;;;5031593;28;20049;-66
2023/10/19 00:06:11;;;;;;;8.20;5.70;;;;;15.00;96744.00;;;;5032155;28;20057;-67
2023/10/19 00:08:41;;;;;;;9.30;6.25;;;;;15.10;96746.00;;;;5032025;28;20042;-65
2023/10/19 00:11:09;;;;;;;9.55;5.50;;;;;15.10;96744.00;;;;5030776;28;20088;-65
2023/10/19 00:13:40;;;;;;;7.93;5.93;;;;;15.20;96743.00;;;;5031626;28;20383;-66
2023/10/19 00:16:21;;;;;;;9.70;6.60;;;;;15.20;96745.00;;;;5032000;28;20041;-65
2023/10/19 00:18:52;;;;;;;8.57;6.13;;;;;15.20;96736.00;;;;5031950;28;20116;-66
2023/10/19 00:23:50;;;;;;;7.70;6.40;;;;;15.20;96739.00;;;;5030086;28;20570;-66
2023/10/19 00:26:19;;;;;;;8.77;6.70;;;;;15.30;96749.00;;;;5030628;28;20045;-66
2023/10/19 00:29:30;;;;;;;12.30;7.60;;;;;15.30;96741.00;;;;5031481;28;20073;-67
2023/10/19 00:31:52;;;;;;;9.25;6.95;;;;;15.30;96731.00;;;;5030339;28;20049;-66
2023/10/19 00:34:21;;;;;;;9.25;6.72;;;;;15.30;96734.00;;;;5031124;28;20058;-67
2023/10/19 00:36:48;;;;;;;9.68;7.20;;;;;15.40;96740.00;;;;5034617;28;20498;-67
2023/10/19 00:39:20;;;;;;;10.10;6.95;;;;;15.40;96734.00;;;;5035731;28;20037;-65
2023/10/19 00:41:47;;;;;;;9.02;6.68;;;;;15.40;96734.00;;;;5034833;28;20088;-64
2023/10/19 00:44:23;;;;;;;9.98;7.38;;;;;15.50;96728.00;;;;5033617;28;20453;-64
2023/10/19 00:47:00;;;;;;;9.07;6.97;;;;;15.50;96720.00;;;;5018155;28;20045;-63
2023/10/19 00:49:28;;;;;;;10.52;7.15;;;;;15.50;96720.00;;;;5035591;28;20045;-64
2023/10/19 00:52:10;;;;;;;9.32;6.47;;;;;15.50;96720.00;;;;5017848;28;20101;-64
2023/10/19 00:57:13;;;;;;;8.30;6.82;;;;;15.50;96714.00;;;;5033885;28;20132;-64
2023/10/19 00:59:48;;;;;;;10.20;7.25;;;;;15.50;96722.00;;;;5017652;28;20034;-64
2023/10/19 01:02:28;;;;;;;8.68;7.07;;;;;15.50;96720.00;;;;5033969;28;20542;-64
2023/10/19 01:05:00;;;;;;;8.73;7.25;;;;;15.50;96716.00;;;;5034784;28;20099;-65
2023/10/19 01:07:29;;;;;;;8.05;6.28;;;;;15.60;96725.00;;;;5035055;28;20041;-65
2023/10/19 01:10:20;;;;;;;8.02;6.70;;;;;15.60;96715.00;;;;5035053;28;20044;-65
2023/10/19 01:12:47;;;;;;;9.63;6.68;;;;;15.60;96702.00;;;;5017443;28;20175;-64
2023/10/19 01:15:17;;;;;;;8.75;6.50;;;;;15.70;96710.00;;;;5034218;28;20069;-66
2023/10/19 01:18:14;;;;;;;9.13;6.38;;;;;15.70;96713.00;;;;5033433;28;20486;-65
2023/10/19 01:20:50;;;;;;;9.45;6.25;;;;;15.70;96709.00;;;;5034656;28;20057;-66
2023/10/19 01:23:22;;;;;;;9.55;6.30;;;;;15.70;96709.00;;;;5033451;28;20041;-65
2023/10/19 01:34:05;;;;;;;9.43;7.45;;;;;15.70;96717.00;;;;5034095;28;20041;-66
2023/10/19 01:36:42;;;;;;;7.53;6.40;;;;;15.70;96701.00;;;;5034845;28;20372;-65
2023/10/19 01:39:10;;;;;;;9.00;6.50;;;;;15.70;96694.00;;;;5034479;28;20410;-66
2023/10/19 01:41:41;;;;;;;10.93;6.45;;;;;15.70;96707.00;;;;5034539;28;20121;-65
2023/10/19 01:44:07;;;;;;;8.02;5.97;;;;;15.70;96707.00;;;;5033882;28;20124;-66
2023/10/19 01:46:35;;;;;;;9.70;6.25;;;;;15.70;96704.00;;;;5033115;28;20556;-65
2023/10/19 01:49:04;;;;;;;7.00;5.82;;;;;15.70;96705.00;;;;5032828;28;20820;-65
2023/10/19 01:51:32;;;;;;;10.73;6.32;;;;;15.70;96701.00;;;;5034233;28;20774;-65
2023/10/19 01:54:02;;;;;;;8.63;6.38;;;;;15.70;96701.00;;;;5032464;28;20049;-65
2023/10/19 01:56:29;;;;;;;8.63;6.50;;;;;15.70;96697.00;;;;5034199;28;20087;-67
2023/10/19 01:58:57;;;;;;;9.57;6.53;;;;;15.70;96701.00;;;;5033880;28;20457;-66
2023/10/19 02:04:05;;;;;;;8.43;6.85;;;;;15.70;96692.00;;;;5033564;28;20041;-66
2023/10/19 02:09:17;;;;;;;9.82;6.55;;;;;15.70;96684.00;;;;5033914;28;20706;-66
2023/10/19 02:11:48;;;;;;;8.38;6.20;;;;;15.70;96680.00;;;;5033890;28;20049;-66
2023/10/19 02:14:19;;;;;;;9.00;6.00;;;;;15.70;96678.00;;;;5032460;28;20464;-66
2023/10/19 02:16:52;;;;;;;8.18;5.97;;;;;15.70;96674.00;;;;5032629;28;20116;-67
2023/10/19 02:19:20;;;;;;;8.57;6.37;;;;;15.70;96665.00;;;;5032386;28;20045;-66
2023/10/19 02:21:58;;;;;;;8.48;5.72;;;;;15.70;96670.00;;;;5033620;28;20096;-66
2023/10/19 02:24:26;;;;;;;8.95;6.15;;;;;15.70;96671.00;;;;5033048;28;20064;-66
2023/10/19 02:26:55;;;;;;;8.27;5.50;;;;;15.70;96671.00;;;;5032237;28;20049;-66
2023/10/19 02:29:23;;;;;;;8.07;5.63;;;;;15.70;96668.00;;;;5016011;28;20053;-66
2023/10/19 02:31:49;;;;;;;11.63;6.07;;;;;15.80;96673.00;;;;5032185;28;20051;-66
2023/10/19 02:34:17;;;;;;;7.00;5.68;;;;;15.80;96659.00;;;;5032934;28;20471;-66
2023/10/19 02:36:45;;;;;;;6.88;5.38;;;;;15.80;96657.00;;;;5032213;28;20053;-66
2023/10/19 02:39:14;;;;;;;7.75;5.97;;;;;15.80;96657.00;;;;5033210;28;20095;-67
2023/10/19 02:41:49;;;;;;;8.65;6.05;;;;;15.70;96658.00;;;;5033301;28;20099;-66
2023/10/19 02:46:53;;;;;;;14.95;7.22;;;;;15.70;96660.00;;;;5033137;28;20045;-67
2023/10/19 02:49:22;;;;;;;7.68;6.20;;;;;15.70;96659.00;;;;5033003;28;20095;-66
2023/10/19 02:51:50;;;;;;;11.55;5.95;;;;;15.70;96655.00;;;;5033292;28;20037;-66
2023/10/19 02:54:22;;;;;;;9.38;6.72;;;;;15.70;96650.00;;;;5032767;28;20061;-67
2023/10/19 02:56:51;;;;;;;10.18;6.07;;;;;15.70;96660.00;;;;5032172;28;20056;-67
2023/10/19 02:59:23;;;;;;;10.00;6.05;;;;;15.80;96661.00;;;;5015578;28;20053;-67
2023/10/19 03:02:06;;;;;;;11.55;6.68;;;;;15.80;96663.00;;;;5031756;28;20072;-67
2023/10/19 03:04:35;;;;;;;8.73;6.43;;;;;15.90;96657.00;;;;5032705;28;20041;-67
2023/10/19 03:07:07;;;;;;;8.07;6.20;;;;;15.90;96644.00;;;;5032058;28;20437;-69
2023/10/19 03:09:48;;;;;;;10.75;6.90;;;;;15.90;96645.00;;;;5032704;28;20073;-66
2023/10/19 03:12:16;;;;;;;10.13;6.55;;;;;15.90;96641.00;;;;5034600;28;20049;-67
2023/10/19 03:14:43;;;;;;;8.90;6.57;;;;;15.90;96638.00;;;;5034553;28;20442;-66
2023/10/19 03:17:10;;;;;;;11.38;7.13;;;;;16.00;96634.00;;;;5033032;28;20410;-67
2023/10/19 03:19:38;;;;;;;7.53;6.35;;;;;16.00;96631.00;;;;5032695;28;20041;-67
2023/10/19 03:22:08;;;;;;;11.63;6.78;;;;;16.00;96636.00;;;;5032766;28;20079;-67
2023/10/19 03:24:35;;;;;;;10.88;7.35;;;;;16.00;96640.00;;;;5032238;28;20048;-66
2023/10/19 03:27:16;;;;;;;9.63;5.97;;;;;16.00;96640.00;;;;5031417;28;20049;-67
2023/10/19 03:29:46;;;;;;;11.10;6.78;;;;;15.90;96629.00;;;;5033130;28;20037;-66
2023/10/19 03:32:14;;;;;;;7.03;5.78;;;;;15.90;96624.00;;;;5032771;28;20048;-67
2023/10/19 03:34:46;;;;;;;7.93;6.45;;;;;15.90;96624.00;;;;5032329;28;20037;-67
2023/10/19 03:37:14;;;;;;;9.27;6.25;;;;;15.90;96626.00;;;;5032479;28;20486;-67
2023/10/19 03:39:41;;;;;;;28.90;20.98;;;;;15.80;96627.00;;;;5032716;28;20041;-67
2023/10/19 03:42:08;;;;;;;11.20;7.82;;;;;15.80;96616.00;;;;5031371;28;20077;-67
2023/10/19 03:47:19;;;;;;;9.50;6.63;;;;;15.60;96606.00;;;;5031155;28;20496;-67
2023/10/19 03:49:49;;;;;;;11.38;7.22;;;;;15.60;96605.00;;;;5032386;28;20047;-67
2023/10/19 03:54:43;;;;;;;10.27;6.72;;;;;15.60;96594.00;;;;5031661;28;20111;-67
2023/10/19 03:57:29;;;;;;;12.25;6.85;;;;;15.60;96592.00;;;;5014472;28;20052;-67
2023/10/19 03:59:57;;;;;;;10.25;6.78;;;;;15.50;96592.00;;;;5030944;28;20058;-67
2023/10/19 04:02:29;;;;;;;13.48;7.63;;;;;15.40;96591.00;;;;5030888;28;20517;-67
2023/10/19 04:04:57;;;;;;;9.02;7.32;;;;;15.40;96590.00;;;;5031621;28;20525;-67
2023/10/19 04:07:30;;;;;;;8.70;7.15;;;;;15.30;96596.00;;;;5030858;28;20391;-67
2023/10/19 04:12:35;;;;;;;10.77;7.63;;;;;15.30;96595.00;;;;5036352;28;20427;-67
2023/10/19 04:17:38;;;;;;;10.20;7.30;;;;;15.40;96584.00;;;;5036093;28;20049;-67
2023/10/19 04:20:26;;;;;;;10.05;7.07;;;;;15.40;96579.00;;;;5036338;28;20046;-67
2023/10/19 04:22:53;;;;;;;12.60;6.88;;;;;15.50;96580.00;;;;5036298;28;20120;-67
2023/10/19 04:25:20;;;;;;;10.63;7.13;;;;;15.50;96573.00;;;;5035562;28;20050;-67
2023/10/19 04:27:48;;;;;;;9.40;5.95;;;;;15.50;96572.00;;;;5036059;28;20055;-66
2023/10/19 04:30:16;;;;;;;11.95;6.57;;;;;15.60;96582.00;;;;5036257;28;20037;-67
2023/10/19 04:32:43;;;;;;;10.27;7.10;;;;;15.60;96583.00;;;;5034585;28;20548;-67
2023/10/19 04:35:13;;;;;;;14.07;9.23;;;;;15.60;96569.00;;;;5035448;28;20087;-68
2023/10/19 04:37:44;;;;;;;10.15;6.50;;;;;15.70;96582.00;;;;5034308;28;20053;-67
2023/10/19 04:40:11;;;;;;;10.15;7.47;;;;;15.70;96579.00;;;;5035690;28;20065;-67
2023/10/19 04:42:38;;;;;;;10.98;7.60;;;;;15.70;96581.00;;;;5034340;28;20041;-67
2023/10/19 04:45:05;;;;;;;10.93;6.00;;;;;15.70;96581.00;;;;5034948;28;20053;-67
2023/10/19 04:47:35;;;;;;;7.82;5.40;;;;;15.70;96581.00;;;;5035169;28;20048;-67
2023/10/19 04:50:02;;;;;;;9.02;5.20;;;;;15.70;96588.00;;;;5035212;28;20084;-67
2023/10/19 04:52:29;;;;;;;7.88;5.47;;;;;15.80;96586.00;;;;5035420;28;20124;-67
2023/10/19 04:54:57;;;;;;;9.68;5.40;;;;;15.80;96581.00;;;;5034797;28;20041;-67
2023/10/19 04:57:24;;;;;;;8.00;5.72;;;;;15.80;96575.00;;;;5034024;28;20049;-67
2023/10/19 04:59:50;;;;;;;10.00;5.13;;;;;15.80;96572.00;;;;5035074;28;20112;-66
2023/10/19 05:02:17;;;;;;;8.30;5.15;;;;;15.80;96569.00;;;;5035205;28;20095;-66
2023/10/19 05:04:45;;;;;;;9.80;5.75;;;;;15.90;96568.00;;;;5034455;28;20041;-66
2023/10/19 05:07:17;;;;;;;9.07;5.93;;;;;15.90;96568.00;;;;5034122;28;20045;-67
2023/10/19 05:09:44;;;;;;;7.55;5.40;;;;;16.00;96574.00;;;;5033951;28;20491;-66
2023/10/19 05:12:12;;;;;;;7.88;5.13;;;;;16.00;96571.00;;;;5035136;28;20052;-66
2023/10/19 05:14:39;;;;;;;10.50;5.20;;;;;16.00;96568.00;;;;5034981;28;20041;-66
2023/10/19 05:17:06;;;;;;;9.27;5.43;;;;;16.00;96570.00;;;;5035138;28;20491;-66
2023/10/19 05:19:33;;;;;;;8.02;4.65;;;;;16.10;96564.00;;;;5034699;28;20491;-67
2023/10/19 05:22:05;;;;;;;10.70;4.75;;;;;16.10;96570.00;;;;5034946;28;20491;-66
2023/10/19 05:24:33;;;;;;;8.43;4.68;;;;;16.00;96562.00;;;;5033240;28;20042;-66
2023/10/19 05:26:59;;;;;;;9.60;4.72;;;;;16.00;96570.00;;;;5034953;28;20136;-67
2023/10/19 05:29:26;;;;;;;11.05;4.88;;;;;16.00;96565.00;;;;5035096;28;20491;-66
2023/10/19 05:31:53;;;;;;;6.95;4.40;;;;;16.00;96565.00;;;;5034885;28;20057;-67
2023/10/19 05:34:21;;;;;;;9.65;5.22;;;;;16.00;96570.00;;;;5034279;28;20045;-66
2023/10/19 05:36:48;;;;;;;8.45;4.60;;;;;16.00;96563.00;;;;5034966;28;20045;-66
2023/10/19 05:39:16;;;;;;;8.60;4.70;;;;;16.00;96551.00;;;;5033501;28;20065;-66
2023/10/19 05:41:43;;;;;;;8.57;4.10;;;;;16.00;96555.00;;;;5034685;28;20494;-66
2023/10/19 05:44:10;;;;;;;7.57;4.00;;;;;16.00;96557.00;;;;5032995;28;20050;-65
2023/10/19 05:46:38;;;;;;;6.20;4.28;;;;;15.90;96561.00;;;;5035710;28;20041;-66
2023/10/19 05:49:06;;;;;;;5.45;3.95;;;;;15.90;96559.00;;;;5033284;28;20115;-66
2023/10/19 05:51:32;;;;;;;7.22;3.80;;;;;15.90;96566.00;;;;5017938;28;20467;-65
2023/10/19 05:54:01;;;;;;;6.18;3.90;;;;;15.90;96561.00;;;;5033852;28;20052;-66
2023/10/19 05:56:30;;;;;;;8.65;3.95;;;;;15.90;96564.00;;;;5034355;28;20120;-66
2023/10/19 05:58:57;;;;;;;8.88;3.92;;;;;15.90;96561.00;;;;5033053;28;20482;-66
2023/10/19 06:01:24;;;;;;;6.22;4.00;;;;;15.90;96565.00;;;;5033289;28;20045;-65
2023/10/19 06:03:52;;;;;;;6.20;3.70;;;;;15.90;96561.00;;;;5016321;28;20073;-66
2023/10/19 06:06:22;;;;;;;8.38;3.65;;;;;15.90;96562.00;;;;5034806;28;20132;-66
2023/10/19 06:08:53;;;;;;;6.63;3.90;;;;;15.90;96558.00;;;;5034154;28;20111;-66
2023/10/19 06:11:21;;;;;;;5.03;3.10;;;;;16.00;96541.00;;;;5034160;28;20402;-66
2023/10/19 06:13:48;;;;;;;6.25;3.78;;;;;16.00;96552.00;;;;5033437;28;20049;-66
2023/10/19 06:16:15;;;;;;;4.95;3.25;;;;;16.00;96562.00;;;;5032497;28;20434;-66
2023/10/19 06:18:43;;;;;;;4.03;3.30;;;;;16.00;96567.00;;;;5032777;28;20049;-66
2023/10/19 06:21:12;;;;;;;8.82;3.70;;;;;16.10;96567.00;;;;5032578;28;20107;-67
2023/10/19 06:23:39;;;;;;;6.95;3.80;;;;;16.10;96566.00;;;;5031880;28;20132;-65
2023/10/19 06:26:12;;;;;;;7.25;3.65;;;;;16.10;96567.00;;;;5032310;28;20148;-65
2023/10/19 06:28:40;;;;;;;5.15;4.10;;;;;16.10;96564.00;;;;5016192;28;20080;-65
2023/10/19 06:31:08;;;;;;;10.30;3.60;;;;;16.20;96558.00;;;;5033747;28;20053;-66
2023/10/19 06:33:35;;;;;;;12.90;8.77;;;;;16.20;96567.00;;;;5031048;28;20045;-66
2023/10/19 06:36:03;;;;;;;7.25;4.38;;;;;16.20;96566.00;;;;5033582;28;20052;-66
2023/10/19 06:38:31;;;;;;;8.73;3.97;;;;;16.20;96574.00;;;;5033390;28;20050;-66
2023/10/19 06:40:59;;;;;;;5.05;3.60;;;;;16.20;96573.00;;;;5032217;28;20069;-66
2023/10/19 06:43:28;;;;;;;8.15;3.65;;;;;16.20;96580.00;;;;5033249;28;20125;-66
2023/10/19 06:45:58;;;;;;;8.65;4.00;;;;;16.20;96574.00;;;;5033272;28;20072;-66
2023/10/19 06:48:25;;;;;;;7.90;4.30;;;;;16.30;96568.00;;;;5033104;28;20363;-65
2023/10/19 06:50:51;;;;;;;13.50;4.45;;;;;16.30;96570.00;;;;5033261;28;20045;-66
2023/10/19 06:53:18;;;;;;;8.93;4.40;;;;;16.30;96578.00;;;;5033092;28;20042;-66
2023/10/19 06:55:45;;;;;;;10.00;4.38;;;;;16.40;96571.00;;;;5032785;28;20038;-66
2023/10/19 06:58:12;;;;;;;6.38;3.90;;;;;16.40;96580.00;;;;5032129;28;20041;-67
2023/10/19 07:00:42;;;;;;;6.07;4.45;;;;;16.40;96570.00;;;;5032938;28;20483;-67
2023/10/19 07:03:13;;;;;;;;;;;;;16.40;96578.00;;;;5032323;28;20107;-67
2023/10/19 07:05:40;;;;;;;4.78;3.38;;;;;16.40;96565.00;;;;5031031;28;20392;-68
2023/10/19 07:08:07;;;;;;;10.07;3.85;;;;;16.50;96566.00;;;;5032726;28;20037;-67
2023/10/19 07:10:34;;;;;;;8.80;4.20;;;;;16.50;96560.00;;;;5031427;28;20068;-66
2023/10/19 07:13:01;;;;;;;6.15;3.53;;;;;16.50;96553.00;;;;5033068;28;20041;-66
2023/10/19 07:15:29;;;;;;;8.32;3.50;;;;;16.60;96550.00;;;;5032229;28;20045;-67
2023/10/19 07:17:58;;;;;;;8.98;3.60;;;;;16.60;96551.00;;;;5031176;28;20068;-66
2023/10/19 07:20:25;;;;;;;6.60;4.10;;;;;16.60;96550.00;;;;5032807;28;20045;-67
2023/10/19 07:22:53;;;;;;;8.13;3.60;;;;;16.70;96560.00;;;;5032336;28;20503;-67
2023/10/19 07:25:21;;;;;;;5.20;3.60;;;;;16.70;96563.00;;;;5033332;28;20045;-68
2023/10/19 07:27:52;;;;;;;5.55;3.40;;;;;16.80;96571.00;;;;5033700;28;20131;-67
2023/10/19 07:30:26;;;;;;;6.72;3.55;;;;;16.80;96574.00;;;;5031751;28;20041;-66
2023/10/19 07:32:59;;;;;;;8.55;3.97;;;;;16.90;96579.00;;;;5031589;28;20148;-67
2023/10/19 07:35:27;;;;;;;5.03;3.30;;;;;16.90;96578.00;;;;5031083;28;20057;-67
2023/10/19 07:37:56;;;;;;;6.90;3.80;;;;;16.90;96568.00;;;;5032447;28;20037;-67
2023/10/19 07:40:24;;;;;;;8.27;3.47;;;;;16.90;96567.00;;;;5032500;28;20442;-67
2023/10/19 07:42:54;;;;;;;7.72;3.72;;;;;16.80;96568.00;;;;5031194;28;20053;-66
2023/10/19 07:45:21;;;;;;;5.88;3.72;;;;;16.90;96574.00;;;;5013983;28;20053;-67
2023/10/19 07:47:48;;;;;;;11.95;4.18;;;;;16.90;96572.00;;;;5032190;28;20049;-67
2023/10/19 07:50:18;;;;;;;4.88;3.63;;;;;17.00;96567.00;;;;5031163;28;20716;-67
2023/10/19 07:52:48;;;;;;;7.97;3.50;;;;;17.00;96564.00;;;;5031493;28;20545;-66
2023/10/19 07:55:16;;;;;;;11.15;4.10;;;;;17.10;96558.00;;;;5031705;28;20460;-67
2023/10/19 07:57:44;;;;;;;6.03;3.67;;;;;17.20;96563.00;;;;5032165;28;20050;-66
2023/10/19 08:00:13;;;;;;;7.45;3.63;;;;;17.30;96564.00;;;;5030965;28;20041;-67
2023/10/19 08:02:41;;;;;;;8.15;3.92;;;;;17.50;96570.00;;;;5032235;28;20414;-66
2023/10/19 08:05:11;;;;;;;4.93;3.10;;;;;17.50;96565.00;;;;5031664;28;20042;-66
2023/10/19 08:07:46;;;;;;;7.40;3.70;;;;;17.70;96560.00;;;;5032160;28;20049;-67
2023/10/19 08:10:15;;;;;;;6.07;3.97;;;;;17.80;96560.00;;;;5014609;28;20073;-66
2023/10/19 08:12:44;;;;;;;9.10;4.05;;;;;17.90;96548.00;;;;5032040;28;20529;-66
2023/10/19 08:15:13;;;;;;;4.72;3.22;;;;;18.20;96544.00;;;;5030463;28;20462;-66
2023/10/19 08:17:41;;;;;;;5.55;3.42;;;;;18.60;96558.00;;;;5014478;28;20084;-67
2023/10/19 08:20:30;;;;;;;5.97;3.33;;;;;18.60;96553.00;;;;5032101;28;20079;-67
2023/10/19 08:22:58;;;;;;;5.50;3.47;;;;;18.50;96556.00;;;;5032771;28;20050;-67
2023/10/19 08:25:28;;;;;;;5.50;3.28;;;;;18.50;96550.00;;;;5030285;28;20045;-67
2023/10/19 08:28:15;;;;;;;6.47;3.80;;;;;18.60;96553.00;;;;5030831;28;20053;-66
2023/10/19 08:30:44;;;;;;;6.53;3.90;;;;;18.70;96546.00;;;;5031771;28;20041;-66
2023/10/19 08:33:13;;;;;;;10.60;3.40;;;;;18.80;96554.00;;;;5031757;28;20049;-66
2023/10/19 08:35:40;;;;;;;6.97;3.30;;;;;18.80;96555.00;;;;5030073;28;20099;-67
2023/10/19 08:38:11;;;;;;;5.88;3.47;;;;;18.90;96560.00;;;;5031969;28;20037;-67
2023/10/19 08:40:39;;;;;;;7.32;3.25;;;;;18.90;96555.00;;;;5032174;28;20042;-65
2023/10/19 08:43:08;;;;;;;8.25;3.65;;;;;19.00;96551.00;;;;5030833;28;20068;-66
2023/10/19 08:45:34;;;;;;;4.97;3.08;;;;;19.10;96548.00;;;;5031058;28;20469;-65
2023/10/19 08:48:02;;;;;;;4.95;3.13;;;;;19.30;96554.00;;;;5031574;28;20069;-66
2023/10/19 08:50:33;;;;;;;4.25;3.00;;;;;19.50;96536.00;;;;5030603;28;20136;-66
2023/10/19 08:53:02;;;;;;;3.95;2.92;;;;;19.70;96539.00;;;;5030870;28;20083;-66
2023/10/19 08:55:34;;;;;;;4.95;3.10;;;;;19.80;96526.00;;;;5032479;28;20418;-67
2023/10/19 08:58:16;;;;;;;4.35;3.28;;;;;19.90;96531.00;;;;5035577;28;20061;-66
2023/10/19 09:00:54;;;;;;;5.38;2.78;;;;;19.90;96524.00;;;;5035704;28;20605;-66
2023/10/19 09:03:24;;;;;;;6.70;2.97;;;;;19.90;96529.00;;;;5035480;28;20088;-67
2023/10/19 09:05:51;;;;;;;5.10;3.20;;;;;20.00;96524.00;;;;5035470;28;20049;-66
2023/10/19 09:08:19;;;;;;;9.20;5.38;;;;;20.20;96517.00;;;;5034121;28;20049;-67
2023/10/19 09:10:49;;;;;;;6.10;2.83;;;;;20.50;96522.00;;;;5035272;28;20049;-67
2023/10/19 09:13:18;;;;;;;4.00;2.80;;;;;20.60;96519.00;;;;5033939;28;20050;-65
2023/10/19 09:15:48;;;;;;;10.30;2.92;;;;;20.40;96525.00;;;;5034628;28;20041;-65
2023/10/19 09:18:17;;;;;;;4.50;2.50;;;;;20.20;96513.00;;;;5035054;28;20401;-66
2023/10/19 09:20:52;;;;;;;4.25;2.50;;;;;20.20;96504.00;;;;5034974;28;20095;-66
2023/10/19 09:23:29;;;;;;;3.42;2.25;;;;;20.10;96501.00;;;;5035012;28;20049;-66
2023/10/19 09:25:57;;;;;;;4.88;2.50;;;;;20.00;96509.00;;;;5035250;28;20171;-68
2023/10/19 09:28:24;;;;;;;3.33;2.40;;;;;19.90;96511.00;;;;5035190;28;20410;-67
2023/10/19 09:30:53;;;;;;;3.38;2.30;;;;;19.80;96510.00;;;;5035118;28;20494;-67
2023/10/19 09:33:21;;;;;;;6.05;2.78;;;;;19.80;96521.00;;;;5034987;28;20053;-67
2023/10/19 09:35:52;;;;;;;7.22;2.40;;;;;19.70;96515.00;;;;5033633;28;20569;-66
2023/10/19 09:38:22;;;;;;;5.05;2.85;;;;;19.70;96528.00;;;;5033273;28;20068;-67
2023/10/19 09:40:59;;;;;;;5.05;2.70;;;;;19.70;96521.00;;;;5034645;28;20549;-66
2023/10/19 09:43:34;;;;;;;5.90;2.83;;;;;19.60;96507.00;;;;5034271;28;20060;-65
2023/10/19 09:46:06;;;;;;;3.65;2.03;;;;;19.60;96501.00;;;;5033641;28;20073;-66
2023/10/19 09:48:38;;;;;;;6.85;2.53;;;;;19.60;96502.00;;;;5034873;28;20128;-67
2023/10/19 09:51:08;;;;;;;5.72;2.60;;;;;19.70;96511.00;;;;5034978;28;20037;-66
2023/10/19 09:53:42;;;;;;;7.45;3.13;;;;;19.70;96503.00;;;;5034019;28;20049;-66
2023/10/19 09:56:21;;;;;;;3.45;2.72;;;;;19.80;96502.00;;;;5034452;28;20476;-66
2023/10/19 09:58:51;;;;;;;6.65;2.42;;;;;19.80;96497.00;;;;5033790;28;20413;-66
2023/10/19 10:01:21;;;;;;;5.25;2.55;;;;;19.80;96504.00;;;;5034877;28;20045;-66
2023/10/19 10:03:49;;;;;;;4.75;2.88;;;;;19.80;96506.00;;;;5035978;28;20136;-66
2023/10/19 10:06:20;;;;;;;4.65;2.92;;;;;19.80;96501.00;;;;5036995;28;20045;-67
2023/10/19 10:08:48;;;;;;;2.22;1.95;;;;;19.90;96505.00;;;;5037844;28;20042;-67
2023/10/19 10:11:28;;;;;;;6.30;2.97;;;;;20.00;96506.00;;;;5038762;28;20431;-66
2023/10/19 10:13:57;;;;;;;6.85;2.78;;;;;20.00;96504.00;;;;5039038;28;20064;-67
2023/10/19 10:16:26;;;;;;;4.30;2.60;;;;;20.10;96506.00;;;;5039493;28;20536;-68
2023/10/19 10:19:01;;;;;;;5.70;2.95;;;;;20.10;96504.00;;;;5042456;28;20069;-68
2023/10/19 10:21:29;;;;;;;7.72;2.55;;;;;20.10;96490.00;;;;5048041;28;20049;-67
2023/10/19 10:23:59;;;;;;;5.40;2.60;;;;;20.00;96505.00;;;;5040490;28;20048;-65
2023/10/19 10:26:35;;;;;;;3.60;2.28;;;;;20.00;96501.00;;;;5048383;28;20045;-66
2023/10/19 10:29:23;;;;;;;3.65;2.60;;;;;20.00;96494.00;;;;5043621;28;20677;-66
2023/10/19 10:31:51;;;;;;;5.20;2.78;;;;;20.00;96494.00;;;;5045889;28;20073;-67
2023/10/19 10:34:36;;;;;;;4.30;2.35;;;;;20.10;96496.00;;;;5050567;28;20514;-67
2023/10/19 10:37:03;;;;;;;6.20;2.63;;;;;20.10;96498.00;;;;5054042;28;20057;-66
2023/10/19 10:39:31;;;;;;;4.50;2.60;;;;;20.20;96496.00;;;;5051699;28;20050;-67
2023/10/19 10:41:58;;;;;;;2.92;2.20;;;;;20.20;96497.00;;;;5047460;28;20077;-67
2023/10/19 10:44:55;;;;;;;4.65;2.50;;;;;20.10;96502.00;;;;5047857;28;20144;-66
2023/10/19 10:47:24;;;;;;;5.13;2.47;;;;;20.00;96493.00;;;;5050934;28;20086;-67
2023/10/19 10:49:59;;;;;;;4.45;2.33;;;;;19.90;96495.00;;;;5051078;28;20041;-67
2023/10/19 10:52:28;;;;;;;5.15;1.88;;;;;19.70;96488.00;;;;5049874;28;20042;-66
2023/10/19 10:54:57;;;;;;;5.65;2.20;;;;;19.60;96476.00;;;;5050538;28;20120;-66
2023/10/19 10:57:24;;;;;;;4.85;2.25;;;;;19.70;96485.00;;;;5042407;28;20049;-66
2023/10/19 11:00:03;;;;;;;4.10;2.05;;;;;19.60;96479.00;;;;5033538;28;20056;-66
2023/10/19 11:02:30;;;;;;;3.70;2.00;;;;;19.50;96474.00;;;;5033676;28;20038;-67
2023/10/19 11:04:57;;;;;;;5.43;2.40;;;;;19.50;96479.00;;;;5032742;28;20487;-67
2023/10/19 11:07:25;;;;;;;3.28;2.10;;;;;19.50;96480.00;;;;5032039;28;20100;-66
2023/10/19 11:09:52;;;;;;;3.70;2.33;;;;;19.40;96467.00;;;;5032046;28;20117;-66
2023/10/19 11:12:21;;;;;;;4.07;2.00;;;;;19.40;96468.00;;;;5031969;28;20042;-66
2023/10/19 11:14:55;;;;;;;6.43;2.08;;;;;19.40;96472.00;;;;5032361;28;20129;-67
2023/10/19 11:17:30;;;;;;;4.75;2.30;;;;;19.40;96466.00;;;;5033195;28;20406;-65
2023/10/19 11:19:58;;;;;;;7.28;2.22;;;;;19.30;96474.00;;;;5032300;28;20092;-66
2023/10/19 11:22:26;;;;;;;4.45;2.05;;;;;19.20;96471.00;;;;5032851;28;20068;-66
2023/10/19 11:24:54;;;;;;;6.28;2.58;;;;;19.20;96464.00;;;;5030843;28;20049;-66
2023/10/19 11:27:27;;;;;;;4.88;2.30;;;;;19.10;96457.00;;;;5032690;28;20060;-67
2023/10/19 11:29:59;;;;;;;6.07;2.78;;;;;19.00;96464.00;;;;5032634;28;20502;-66
2023/10/19 11:32:25;;;;;;;3.45;2.22;;;;;18.90;96458.00;;;;5032571;28;20041;-66
2023/10/19 11:34:56;;;;;;;3.35;2.22;;;;;18.80;96448.00;;;;5032098;28;20087;-66
2023/10/19 11:37:23;;;;;;;5.03;2.08;;;;;18.70;96441.00;;;;5032654;28;20045;-66
2023/10/19 11:39:49;;;;;;;7.00;2.13;;;;;18.60;96449.00;;;;5033072;28;20047;-67
2023/10/19 11:42:18;;;;;;;6.15;2.08;;;;;18.60;96443.00;;;;5035383;28;20550;-66
2023/10/19 11:44:45;;;;;;;4.18;2.17;;;;;18.70;96450.00;;;;5034677;28;20076;-64
2023/10/19 11:47:13;;;;;;;8.18;4.50;;;;;18.80;96456.00;;;;5033653;28;20486;-65
2023/10/19 11:49:40;;;;;;;6.93;3.95;;;;;18.90;96453.00;;;;5031490;28;20473;-65
2023/10/19 11:52:07;;;;;;;7.57;4.10;;;;;18.80;96445.00;;;;5032588;28;20445;-66
2023/10/19 11:54:34;;;;;;;5.90;4.13;;;;;18.70;96447.00;;;;5031836;28;20037;-65
2023/10/19 11:57:04;;;;;;;8.85;4.38;;;;;18.70;96446.00;;;;5031364;28;20064;-65
2023/10/19 11:59:30;;;;;;;7.07;3.63;;;;;18.70;96448.00;;;;5014634;28;20132;-65
2023/10/19 12:01:58;;;;;;;7.50;3.25;;;;;18.80;96445.00;;;;5031059;28;20050;-65
2023/10/19 12:04:25;;;;;;;5.70;2.80;;;;;18.70;96446.00;;;;5031474;28;20041;-65
2023/10/19 12:06:53;;;;;;;3.95;2.58;;;;;18.70;96451.00;;;;5032130;28;20049;-65
2023/10/19 12:09:24;;;;;;;4.82;2.58;;;;;18.80;96462.00;;;;5032057;28;20047;-65
2023/10/19 12:11:53;;;;;;;3.88;3.00;;;;;18.90;96454.00;;;;5030682;28;20099;-65
2023/10/19 12:14:21;;;;;;;3.60;2.50;;;;;19.10;96454.00;;;;5030223;28;20091;-65
2023/10/19 12:16:47;;;;;;;6.97;3.85;;;;;19.10;96461.00;;;;5031183;28;20088;-65
2023/10/19 12:19:14;;;;;;;5.40;3.50;;;;;19.10;96471.00;;;;5032152;28;20046;-65
2023/10/19 12:21:41;;;;;;;6.28;2.40;;;;;19.10;96464.00;;;;5031008;28;20047;-65
2023/10/19 12:24:08;;;;;;;4.10;2.00;;;;;19.00;96457.00;;;;5031390;28;20387;-66
2023/10/19 12:26:35;;;;;;;3.25;1.75;;;;;18.90;96473.00;;;;5031918;28;20049;-65
2023/10/19 12:29:05;;;;;;;2.08;1.88;;;;;18.90;96462.00;;;;5031717;28;20522;-66
2023/10/19 12:31:32;;;;;;;2.08;1.88;;;;;19.00;96486.00;;;;5036079;28;20076;-66
2023/10/19 12:33:58;;;;;;;3.75;2.20;;;;;19.00;96483.00;;;;5034990;28;20053;-65
2023/10/19 12:38:52;;;;;;;2.83;2.08;;;;;18.90;96473.00;;;;5037251;28;20075;-65
2023/10/19 12:41:19;;;;;;;5.43;2.55;;;;;18.90;96476.00;;;;5037648;28;20136;-66
2023/10/19 12:43:46;;;;;;;3.50;2.33;;;;;18.90;96470.00;;;;5037354;28;20045;-66
2023/10/19 12:46:14;;;;;;;2.95;2.17;;;;;18.80;96466.00;;;;5035565;28;20152;-65
2023/10/19 12:48:40;;;;;;;3.58;2.40;;;;;18.70;96463.00;;;;5036107;28;20049;-66
2023/10/19 12:51:08;;;;;;;5.40;2.10;;;;;18.60;96456.00;;;;5036251;28;20041;-65
2023/10/19 12:53:36;;;;;;;3.63;2.00;;;;;18.70;96456.00;;;;5035012;28;20045;-65
2023/10/19 12:56:03;;;;;;;3.25;2.50;;;;;18.70;96452.00;;;;5034788;28;20049;-65
2023/10/19 12:58:31;;;;;;;2.00;1.80;;;;;18.80;96441.00;;;;5034945;28;20049;-65
2023/10/19 13:00:58;;;;;;;3.13;2.05;;;;;18.90;96437.00;;;;5035935;28;20045;-66
2023/10/19 13:03:31;;;;;;;3.05;2.47;;;;;18.90;96437.00;;;;5034955;28;20450;-66